sensor_id;sensor_type;location;lat;lon;timestamp;P1;durP1;ratioP1;P2;durP2;ratioP2
17414;SDS011;8825;48.086;16.426;2023-06-04T00:00:02;3.00;;;2.70;;
17414;SDS011;8825;48.086;16.426;2023-06-04T00:02:31;3.67;;;2.90;;
17414;SDS011;8825;48.086;16.426;2023-06-04T00:07:56;3.87;;;2.50;;
17414;SDS011;8825;48.086;16.426;2023-06-04T00:10:24;3.43;;;2.50;;
17414;SDS011;8825;48.086;16.426;2023-06-04T00:12:52;3.10;;;2.80;;
17414;SDS011;8825;48.086;16.426;2023-06-04T00:15:20;3.17;;;2.60;;
17414;SDS011;8825;48.086;16.426;2023-06-04T00:17:48;4.00;;;2.60;;
17414;SDS011;8825;48.086;16.426;2023-06-04T00:20:16;3.63;;;2.70;;
17414;SDS011;8825;48.086;16.426;2023-06-04T00:22:44;3.43;;;2.53;;
17414;SDS011;8825;48.086;16.426;2023-06-04T00:25:12;3.90;;;2.70;;
17414;SDS011;8825;48.086;16.426;2023-06-04T00:27:40;3.83;;;2.83;;
17414;SDS011;8825;48.086;16.426;2023-06-04T00:30:08;3.20;;;2.73;;
17414;SDS011;8825;48.086;16.426;2023-06-04T00:32:36;3.70;;;2.80;;
17414;SDS011;8825;48.086;16.426;2023-06-04T00:35:05;3.60;;;2.80;;
17414;SDS011;8825;48.086;16.426;2023-06-04T00:37:35;4.07;;;2.93;;
17414;SDS011;8825;48.086;16.426;2023-06-04T00:40:03;3.30;;;2.63;;
17414;SDS011;8825;48.086;16.426;2023-06-04T00:45:53;3.10;;;2.60;;
17414;SDS011;8825;48.086;16.426;2023-06-04T00:48:21;3.77;;;3.07;;
17414;SDS011;8825;48.086;16.426;2023-06-04T00:50:50;3.37;;;2.80;;
17414;SDS011;8825;48.086;16.426;2023-06-04T00:53:20;4.03;;;3.10;;
17414;SDS011;8825;48.086;16.426;2023-06-04T00:55:49;3.53;;;3.00;;
17414;SDS011;8825;48.086;16.426;2023-06-04T00:58:17;3.37;;;2.80;;
17414;SDS011;8825;48.086;16.426;2023-06-04T01:00:46;3.27;;;2.70;;
17414;SDS011;8825;48.086;16.426;2023-06-04T01:03:14;3.13;;;2.50;;
17414;SDS011;8825;48.086;16.426;2023-06-04T01:05:49;2.93;;;2.60;;
17414;SDS011;8825;48.086;16.426;2023-06-04T01:08:18;3.67;;;2.93;;
17414;SDS011;8825;48.086;16.426;2023-06-04T01:10:52;3.63;;;2.97;;
17414;SDS011;8825;48.086;16.426;2023-06-04T01:13:21;5.20;;;2.70;;
17414;SDS011;8825;48.086;16.426;2023-06-04T01:15:49;3.03;;;2.20;;
17414;SDS011;8825;48.086;16.426;2023-06-04T01:18:26;3.33;;;2.77;;
17414;SDS011;8825;48.086;16.426;2023-06-04T01:23:47;3.83;;;2.67;;
17414;SDS011;8825;48.086;16.426;2023-06-04T01:29:48;3.30;;;2.70;;
17414;SDS011;8825;48.086;16.426;2023-06-04T01:35:39;4.17;;;2.90;;
17414;SDS011;8825;48.086;16.426;2023-06-04T01:38:07;3.17;;;2.67;;
17414;SDS011;8825;48.086;16.426;2023-06-04T01:40:35;2.80;;;2.50;;
17414;SDS011;8825;48.086;16.426;2023-06-04T01:46:25;3.00;;;2.67;;
17414;SDS011;8825;48.086;16.426;2023-06-04T01:48:53;3.13;;;2.57;;
17414;SDS011;8825;48.086;16.426;2023-06-04T01:51:20;4.30;;;3.13;;
17414;SDS011;8825;48.086;16.426;2023-06-04T01:54:08;3.20;;;2.70;;
17414;SDS011;8825;48.086;16.426;2023-06-04T01:59:57;4.40;;;2.83;;
17414;SDS011;8825;48.086;16.426;2023-06-04T02:05:47;2.70;;;2.43;;
17414;SDS011;8825;48.086;16.426;2023-06-04T02:11:13;2.93;;;2.47;;
17414;SDS011;8825;48.086;16.426;2023-06-04T02:13:41;4.37;;;3.20;;
17414;SDS011;8825;48.086;16.426;2023-06-04T02:16:09;3.03;;;2.67;;
17414;SDS011;8825;48.086;16.426;2023-06-04T02:21:59;2.53;;;2.20;;
17414;SDS011;8825;48.086;16.426;2023-06-04T02:24:26;2.80;;;2.57;;
17414;SDS011;8825;48.086;16.426;2023-06-04T02:30:17;4.27;;;3.33;;
17414;SDS011;8825;48.086;16.426;2023-06-04T02:36:07;3.47;;;2.83;;
17414;SDS011;8825;48.086;16.426;2023-06-04T02:41:57;3.47;;;3.10;;
17414;SDS011;8825;48.086;16.426;2023-06-04T02:47:47;3.57;;;2.77;;
17414;SDS011;8825;48.086;16.426;2023-06-04T02:50:16;4.13;;;3.40;;
17414;SDS011;8825;48.086;16.426;2023-06-04T02:56:06;3.67;;;2.83;;
17414;SDS011;8825;48.086;16.426;2023-06-04T03:01:56;3.00;;;2.70;;
17414;SDS011;8825;48.086;16.426;2023-06-04T03:07:46;3.30;;;2.73;;
17414;SDS011;8825;48.086;16.426;2023-06-04T03:10:14;3.63;;;2.90;;
17414;SDS011;8825;48.086;16.426;2023-06-04T03:16:05;5.03;;;3.27;;
17414;SDS011;8825;48.086;16.426;2023-06-04T03:22:01;3.00;;;2.70;;
17414;SDS011;8825;48.086;16.426;2023-06-04T03:24:52;2.80;;;2.50;;
17414;SDS011;8825;48.086;16.426;2023-06-04T03:27:04;6.70;;;2.90;;
17414;SDS011;8825;48.086;16.426;2023-06-04T03:29:33;4.33;;;2.87;;
17414;SDS011;8825;48.086;16.426;2023-06-04T03:32:01;3.50;;;2.80;;
17414;SDS011;8825;48.086;16.426;2023-06-04T03:37:51;3.40;;;3.10;;
17414;SDS011;8825;48.086;16.426;2023-06-04T03:40:19;3.40;;;2.67;;
17414;SDS011;8825;48.086;16.426;2023-06-04T03:46:09;2.57;;;2.23;;
17414;SDS011;8825;48.086;16.426;2023-06-04T03:51:59;4.03;;;2.70;;
17414;SDS011;8825;48.086;16.426;2023-06-04T03:57:49;4.57;;;3.47;;
17414;SDS011;8825;48.086;16.426;2023-06-04T04:00:17;3.73;;;3.00;;
17414;SDS011;8825;48.086;16.426;2023-06-04T04:06:09;4.07;;;3.57;;
17414;SDS011;8825;48.086;16.426;2023-06-04T04:11:59;4.10;;;3.70;;
17414;SDS011;8825;48.086;16.426;2023-06-04T04:14:26;4.13;;;3.10;;
17414;SDS011;8825;48.086;16.426;2023-06-04T04:16:54;4.57;;;3.30;;
17414;SDS011;8825;48.086;16.426;2023-06-04T04:22:45;4.87;;;3.07;;
17414;SDS011;8825;48.086;16.426;2023-06-04T04:25:13;4.50;;;3.00;;
17414;SDS011;8825;48.086;16.426;2023-06-04T04:31:02;3.13;;;2.83;;
17414;SDS011;8825;48.086;16.426;2023-06-04T04:36:53;3.70;;;3.03;;
17414;SDS011;8825;48.086;16.426;2023-06-04T04:42:44;4.00;;;3.23;;
17414;SDS011;8825;48.086;16.426;2023-06-04T04:45:12;3.47;;;3.00;;
17414;SDS011;8825;48.086;16.426;2023-06-04T04:47:40;4.10;;;3.20;;
17414;SDS011;8825;48.086;16.426;2023-06-04T04:53:30;4.87;;;3.50;;
17414;SDS011;8825;48.086;16.426;2023-06-04T04:55:57;3.33;;;3.03;;
17414;SDS011;8825;48.086;16.426;2023-06-04T05:01:48;4.23;;;3.47;;
17414;SDS011;8825;48.086;16.426;2023-06-04T05:07:38;3.50;;;2.93;;
17414;SDS011;8825;48.086;16.426;2023-06-04T05:10:06;3.70;;;3.20;;
17414;SDS011;8825;48.086;16.426;2023-06-04T05:12:34;3.43;;;3.13;;
17414;SDS011;8825;48.086;16.426;2023-06-04T05:15:02;3.20;;;2.90;;
17414;SDS011;8825;48.086;16.426;2023-06-04T05:17:30;3.27;;;2.90;;
17414;SDS011;8825;48.086;16.426;2023-06-04T05:23:20;3.67;;;3.33;;
17414;SDS011;8825;48.086;16.426;2023-06-04T05:25:48;4.53;;;3.10;;
17414;SDS011;8825;48.086;16.426;2023-06-04T05:31:39;3.40;;;3.10;;
17414;SDS011;8825;48.086;16.426;2023-06-04T05:37:29;3.80;;;3.00;;
17414;SDS011;8825;48.086;16.426;2023-06-04T05:43:21;3.50;;;3.20;;
17414;SDS011;8825;48.086;16.426;2023-06-04T05:45:49;4.40;;;3.60;;
17414;SDS011;8825;48.086;16.426;2023-06-04T05:51:40;4.53;;;3.20;;
17414;SDS011;8825;48.086;16.426;2023-06-04T05:57:30;3.90;;;3.40;;
17414;SDS011;8825;48.086;16.426;2023-06-04T06:03:20;4.57;;;3.50;;
17414;SDS011;8825;48.086;16.426;2023-06-04T06:05:48;4.23;;;3.63;;
17414;SDS011;8825;48.086;16.426;2023-06-04T06:08:15;3.83;;;3.37;;
17414;SDS011;8825;48.086;16.426;2023-06-04T06:10:43;4.17;;;3.60;;
17414;SDS011;8825;48.086;16.426;2023-06-04T06:13:11;3.97;;;3.67;;
17414;SDS011;8825;48.086;16.426;2023-06-04T06:15:39;3.97;;;3.57;;
17414;SDS011;8825;48.086;16.426;2023-06-04T06:18:07;3.90;;;3.50;;
17414;SDS011;8825;48.086;16.426;2023-06-04T06:20:35;5.13;;;3.23;;
17414;SDS011;8825;48.086;16.426;2023-06-04T06:23:06;4.33;;;3.27;;
17414;SDS011;8825;48.086;16.426;2023-06-04T06:25:34;4.00;;;3.50;;
17414;SDS011;8825;48.086;16.426;2023-06-04T06:28:01;4.00;;;3.40;;
17414;SDS011;8825;48.086;16.426;2023-06-04T06:30:29;4.07;;;3.67;;
17414;SDS011;8825;48.086;16.426;2023-06-04T06:32:57;3.63;;;3.10;;
17414;SDS011;8825;48.086;16.426;2023-06-04T06:35:25;3.40;;;3.00;;
17414;SDS011;8825;48.086;16.426;2023-06-04T06:37:53;3.77;;;3.47;;
17414;SDS011;8825;48.086;16.426;2023-06-04T06:40:20;4.90;;;3.33;;
17414;SDS011;8825;48.086;16.426;2023-06-04T06:42:49;3.87;;;3.50;;
17414;SDS011;8825;48.086;16.426;2023-06-04T06:48:41;4.47;;;3.70;;
17414;SDS011;8825;48.086;16.426;2023-06-04T06:51:11;4.40;;;3.27;;
17414;SDS011;8825;48.086;16.426;2023-06-04T06:57:00;3.50;;;3.20;;
17414;SDS011;8825;48.086;16.426;2023-06-04T07:02:50;3.73;;;3.23;;
17414;SDS011;8825;48.086;16.426;2023-06-04T07:08:40;3.40;;;3.03;;
17414;SDS011;8825;48.086;16.426;2023-06-04T07:11:08;3.83;;;3.43;;
17414;SDS011;8825;48.086;16.426;2023-06-04T07:13:38;3.23;;;2.93;;
17414;SDS011;8825;48.086;16.426;2023-06-04T07:16:06;4.23;;;3.77;;
17414;SDS011;8825;48.086;16.426;2023-06-04T07:18:34;3.37;;;3.07;;
17414;SDS011;8825;48.086;16.426;2023-06-04T07:21:02;7.50;;;2.93;;
17414;SDS011;8825;48.086;16.426;2023-06-04T07:23:30;3.03;;;2.73;;
17414;SDS011;8825;48.086;16.426;2023-06-04T07:25:58;3.00;;;2.63;;
17414;SDS011;8825;48.086;16.426;2023-06-04T07:28:25;2.53;;;2.00;;
17414;SDS011;8825;48.086;16.426;2023-06-04T07:30:53;4.23;;;2.53;;
17414;SDS011;8825;48.086;16.426;2023-06-04T07:33:21;3.23;;;2.50;;
17414;SDS011;8825;48.086;16.426;2023-06-04T07:35:48;3.90;;;2.37;;
17414;SDS011;8825;48.086;16.426;2023-06-04T07:38:16;4.43;;;2.60;;
17414;SDS011;8825;48.086;16.426;2023-06-04T07:44:06;3.77;;;2.27;;
17414;SDS011;8825;48.086;16.426;2023-06-04T07:46:34;3.27;;;2.50;;
17414;SDS011;8825;48.086;16.426;2023-06-04T07:52:24;2.30;;;2.10;;
17414;SDS011;8825;48.086;16.426;2023-06-04T07:58:14;3.30;;;2.83;;
17414;SDS011;8825;48.086;16.426;2023-06-04T08:04:04;3.53;;;2.53;;
17414;SDS011;8825;48.086;16.426;2023-06-04T08:06:32;2.60;;;2.37;;
17414;SDS011;8825;48.086;16.426;2023-06-04T08:09:01;3.47;;;2.70;;
17414;SDS011;8825;48.086;16.426;2023-06-04T08:11:29;5.33;;;2.80;;
17414;SDS011;8825;48.086;16.426;2023-06-04T08:13:56;3.03;;;2.40;;
17414;SDS011;8825;48.086;16.426;2023-06-04T08:16:24;3.10;;;2.33;;
17414;SDS011;8825;48.086;16.426;2023-06-04T08:18:52;3.67;;;2.50;;
17414;SDS011;8825;48.086;16.426;2023-06-04T08:21:26;3.80;;;2.53;;
17414;SDS011;8825;48.086;16.426;2023-06-04T08:23:54;3.13;;;2.83;;
17414;SDS011;8825;48.086;16.426;2023-06-04T08:26:22;2.87;;;2.67;;
17414;SDS011;8825;48.086;16.426;2023-06-04T08:28:52;2.40;;;2.20;;
17414;SDS011;8825;48.086;16.426;2023-06-04T08:31:20;2.67;;;2.47;;
17414;SDS011;8825;48.086;16.426;2023-06-04T08:33:47;3.67;;;2.67;;
17414;SDS011;8825;48.086;16.426;2023-06-04T08:36:15;4.60;;;2.53;;
17414;SDS011;8825;48.086;16.426;2023-06-04T08:38:43;5.03;;;2.77;;
17414;SDS011;8825;48.086;16.426;2023-06-04T08:43:56;2.53;;;2.30;;
17414;SDS011;8825;48.086;16.426;2023-06-04T08:46:26;3.33;;;2.57;;
17414;SDS011;8825;48.086;16.426;2023-06-04T08:48:58;2.83;;;2.53;;
17414;SDS011;8825;48.086;16.426;2023-06-04T08:51:28;2.43;;;2.13;;
17414;SDS011;8825;48.086;16.426;2023-06-04T08:54:00;2.80;;;2.33;;
17414;SDS011;8825;48.086;16.426;2023-06-04T08:56:28;3.83;;;2.50;;
17414;SDS011;8825;48.086;16.426;2023-06-04T08:59:03;2.90;;;2.33;;
17414;SDS011;8825;48.086;16.426;2023-06-04T09:04:49;3.40;;;2.40;;
17414;SDS011;8825;48.086;16.426;2023-06-04T09:07:18;2.60;;;2.40;;
17414;SDS011;8825;48.086;16.426;2023-06-04T09:13:08;3.27;;;2.50;;
17414;SDS011;8825;48.086;16.426;2023-06-04T09:18:58;2.50;;;2.30;;
17414;SDS011;8825;48.086;16.426;2023-06-04T09:24:50;2.87;;;2.40;;
17414;SDS011;8825;48.086;16.426;2023-06-04T09:27:22;4.87;;;2.50;;
17414;SDS011;8825;48.086;16.426;2023-06-04T09:33:13;2.87;;;2.20;;
17414;SDS011;8825;48.086;16.426;2023-06-04T09:39:04;5.17;;;2.07;;
17414;SDS011;8825;48.086;16.426;2023-06-04T09:44:56;3.47;;;2.10;;
17414;SDS011;8825;48.086;16.426;2023-06-04T09:47:25;3.33;;;2.50;;
17414;SDS011;8825;48.086;16.426;2023-06-04T09:53:17;3.20;;;2.10;;
17414;SDS011;8825;48.086;16.426;2023-06-04T09:59:10;2.73;;;2.20;;
17414;SDS011;8825;48.086;16.426;2023-06-04T10:05:02;3.83;;;2.37;;
17414;SDS011;8825;48.086;16.426;2023-06-04T10:07:33;3.67;;;2.27;;
17414;SDS011;8825;48.086;16.426;2023-06-04T10:13:26;2.27;;;2.07;;
17414;SDS011;8825;48.086;16.426;2023-06-04T10:19:07;2.80;;;2.20;;
17414;SDS011;8825;48.086;16.426;2023-06-04T10:24:57;3.30;;;2.47;;
17414;SDS011;8825;48.086;16.426;2023-06-04T10:27:26;3.30;;;2.33;;
17414;SDS011;8825;48.086;16.426;2023-06-04T10:29:54;3.17;;;1.97;;
17414;SDS011;8825;48.086;16.426;2023-06-04T10:32:22;3.50;;;2.50;;
17414;SDS011;8825;48.086;16.426;2023-06-04T10:34:55;4.00;;;2.33;;
17414;SDS011;8825;48.086;16.426;2023-06-04T10:37:26;3.20;;;2.30;;
17414;SDS011;8825;48.086;16.426;2023-06-04T10:39:55;2.93;;;2.23;;
17414;SDS011;8825;48.086;16.426;2023-06-04T10:42:24;4.43;;;2.60;;
17414;SDS011;8825;48.086;16.426;2023-06-04T10:44:53;3.63;;;2.10;;
17414;SDS011;8825;48.086;16.426;2023-06-04T10:50:50;3.10;;;2.30;;
17414;SDS011;8825;48.086;16.426;2023-06-04T10:53:19;3.03;;;2.17;;
17414;SDS011;8825;48.086;16.426;2023-06-04T10:59:14;2.50;;;2.30;;
17414;SDS011;8825;48.086;16.426;2023-06-04T11:05:06;2.70;;;2.33;;
17414;SDS011;8825;48.086;16.426;2023-06-04T11:07:45;2.93;;;2.30;;
17414;SDS011;8825;48.086;16.426;2023-06-04T11:10:14;3.13;;;2.20;;
17414;SDS011;8825;48.086;16.426;2023-06-04T11:12:46;3.53;;;2.20;;
17414;SDS011;8825;48.086;16.426;2023-06-04T11:15:17;2.23;;;1.90;;
17414;SDS011;8825;48.086;16.426;2023-06-04T11:17:54;2.60;;;2.40;;
17414;SDS011;8825;48.086;16.426;2023-06-04T11:23:48;4.30;;;2.40;;
17414;SDS011;8825;48.086;16.426;2023-06-04T11:29:39;2.50;;;2.30;;
17414;SDS011;8825;48.086;16.426;2023-06-04T11:32:07;2.30;;;2.10;;
17414;SDS011;8825;48.086;16.426;2023-06-04T11:34:35;2.23;;;2.00;;
17414;SDS011;8825;48.086;16.426;2023-06-04T11:40:25;3.93;;;2.30;;
17414;SDS011;8825;48.086;16.426;2023-06-04T11:42:53;3.60;;;2.20;;
17414;SDS011;8825;48.086;16.426;2023-06-04T11:45:21;3.57;;;2.10;;
17414;SDS011;8825;48.086;16.426;2023-06-04T11:47:56;3.73;;;2.17;;
17414;SDS011;8825;48.086;16.426;2023-06-04T11:50:21;3.17;;;2.00;;
17414;SDS011;8825;48.086;16.426;2023-06-04T11:52:51;2.10;;;1.90;;
17414;SDS011;8825;48.086;16.426;2023-06-04T11:55:20;4.03;;;2.53;;
17414;SDS011;8825;48.086;16.426;2023-06-04T12:01:10;3.70;;;2.20;;
17414;SDS011;8825;48.086;16.426;2023-06-04T12:03:42;4.33;;;2.60;;
17414;SDS011;8825;48.086;16.426;2023-06-04T12:09:32;2.43;;;2.17;;
17414;SDS011;8825;48.086;16.426;2023-06-04T12:15:29;3.37;;;2.53;;
17414;SDS011;8825;48.086;16.426;2023-06-04T12:17:56;4.00;;;2.20;;
17414;SDS011;8825;48.086;16.426;2023-06-04T12:20:34;3.33;;;2.97;;
17414;SDS011;8825;48.086;16.426;2023-06-04T12:23:04;2.73;;;2.50;;
17414;SDS011;8825;48.086;16.426;2023-06-04T12:25:33;2.67;;;2.40;;
17414;SDS011;8825;48.086;16.426;2023-06-04T12:40:20;3.50;;;2.50;;
17414;SDS011;8825;48.086;16.426;2023-06-04T12:42:49;5.50;;;3.00;;
17414;SDS011;8825;48.086;16.426;2023-06-04T12:45:17;3.10;;;2.60;;
17414;SDS011;8825;48.086;16.426;2023-06-04T12:47:45;3.47;;;2.63;;
17414;SDS011;8825;48.086;16.426;2023-06-04T12:50:13;4.20;;;2.80;;
17414;SDS011;8825;48.086;16.426;2023-06-04T12:56:03;3.20;;;2.23;;
17414;SDS011;8825;48.086;16.426;2023-06-04T12:58:31;2.70;;;2.50;;
17414;SDS011;8825;48.086;16.426;2023-06-04T13:04:21;3.97;;;2.70;;
17414;SDS011;8825;48.086;16.426;2023-06-04T13:10:11;2.83;;;2.47;;
17414;SDS011;8825;48.086;16.426;2023-06-04T13:16:02;3.27;;;2.70;;
17414;SDS011;8825;48.086;16.426;2023-06-04T13:18:30;4.40;;;2.80;;
17414;SDS011;8825;48.086;16.426;2023-06-04T13:20:58;4.00;;;2.63;;
17414;SDS011;8825;48.086;16.426;2023-06-04T13:23:27;3.60;;;2.80;;
17414;SDS011;8825;48.086;16.426;2023-06-04T13:25:55;2.80;;;2.47;;
17414;SDS011;8825;48.086;16.426;2023-06-04T13:28:23;3.00;;;2.70;;
17414;SDS011;8825;48.086;16.426;2023-06-04T13:30:51;3.47;;;2.67;;
17414;SDS011;8825;48.086;16.426;2023-06-04T13:33:19;2.97;;;2.70;;
17414;SDS011;8825;48.086;16.426;2023-06-04T13:35:47;3.80;;;2.40;;
17414;SDS011;8825;48.086;16.426;2023-06-04T13:41:38;2.93;;;2.47;;
17414;SDS011;8825;48.086;16.426;2023-06-04T13:44:05;3.70;;;2.60;;
17414;SDS011;8825;48.086;16.426;2023-06-04T13:49:56;5.53;;;2.90;;
17414;SDS011;8825;48.086;16.426;2023-06-04T13:55:46;3.17;;;2.30;;
17414;SDS011;8825;48.086;16.426;2023-06-04T13:58:14;3.27;;;2.70;;
17414;SDS011;8825;48.086;16.426;2023-06-04T14:00:42;5.50;;;2.63;;
17414;SDS011;8825;48.086;16.426;2023-06-04T14:06:32;3.07;;;2.77;;
17414;SDS011;8825;48.086;16.426;2023-06-04T14:09:01;4.07;;;3.17;;
17414;SDS011;8825;48.086;16.426;2023-06-04T14:11:29;3.87;;;2.87;;
17414;SDS011;8825;48.086;16.426;2023-06-04T14:13:58;3.30;;;3.00;;
17414;SDS011;8825;48.086;16.426;2023-06-04T14:16:26;3.50;;;2.70;;
17414;SDS011;8825;48.086;16.426;2023-06-04T14:18:54;3.20;;;2.47;;
17414;SDS011;8825;48.086;16.426;2023-06-04T14:21:21;3.03;;;2.80;;
17414;SDS011;8825;48.086;16.426;2023-06-04T14:23:49;3.47;;;2.87;;
17414;SDS011;8825;48.086;16.426;2023-06-04T14:26:17;3.73;;;2.77;;
17414;SDS011;8825;48.086;16.426;2023-06-04T14:28:46;3.27;;;2.97;;
17414;SDS011;8825;48.086;16.426;2023-06-04T14:31:13;4.83;;;2.87;;
17414;SDS011;8825;48.086;16.426;2023-06-04T14:33:41;2.80;;;2.60;;
17414;SDS011;8825;48.086;16.426;2023-06-04T14:36:09;3.83;;;2.60;;
17414;SDS011;8825;48.086;16.426;2023-06-04T14:41:59;5.07;;;3.67;;
17414;SDS011;8825;48.086;16.426;2023-06-04T14:44:27;3.20;;;2.90;;
17414;SDS011;8825;48.086;16.426;2023-06-04T14:50:16;4.70;;;3.40;;
17414;SDS011;8825;48.086;16.426;2023-06-04T14:56:07;4.57;;;3.73;;
17414;SDS011;8825;48.086;16.426;2023-06-04T15:01:56;4.77;;;3.20;;
17414;SDS011;8825;48.086;16.426;2023-06-04T15:04:24;3.50;;;3.20;;
17414;SDS011;8825;48.086;16.426;2023-06-04T15:06:52;3.63;;;3.03;;
17414;SDS011;8825;48.086;16.426;2023-06-04T15:09:20;4.33;;;3.73;;
17414;SDS011;8825;48.086;16.426;2023-06-04T15:11:48;3.80;;;3.43;;
17414;SDS011;8825;48.086;16.426;2023-06-04T15:14:16;3.50;;;3.03;;
17414;SDS011;8825;48.086;16.426;2023-06-04T15:16:43;3.37;;;2.77;;
17414;SDS011;8825;48.086;16.426;2023-06-04T15:22:33;4.10;;;3.20;;
17414;SDS011;8825;48.086;16.426;2023-06-04T15:25:01;4.70;;;3.30;;
17414;SDS011;8825;48.086;16.426;2023-06-04T15:30:51;5.97;;;3.40;;
17414;SDS011;8825;48.086;16.426;2023-06-04T15:33:19;3.87;;;3.47;;
17414;SDS011;8825;48.086;16.426;2023-06-04T15:35:47;3.40;;;3.10;;
17414;SDS011;8825;48.086;16.426;2023-06-04T15:41:12;4.63;;;3.70;;
17414;SDS011;8825;48.086;16.426;2023-06-04T15:47:02;5.20;;;3.20;;
17414;SDS011;8825;48.086;16.426;2023-06-04T15:49:30;3.90;;;3.20;;
17414;SDS011;8825;48.086;16.426;2023-06-04T15:51:58;3.80;;;3.50;;
17414;SDS011;8825;48.086;16.426;2023-06-04T15:54:26;3.30;;;2.93;;
17414;SDS011;8825;48.086;16.426;2023-06-04T15:56:54;4.70;;;3.20;;
17414;SDS011;8825;48.086;16.426;2023-06-04T15:59:22;3.90;;;3.20;;
17414;SDS011;8825;48.086;16.426;2023-06-04T16:01:50;4.50;;;3.87;;
17414;SDS011;8825;48.086;16.426;2023-06-04T16:13:52;3.20;;;3.00;;
17414;SDS011;8825;48.086;16.426;2023-06-04T16:16:19;3.43;;;2.97;;
17414;SDS011;8825;48.086;16.426;2023-06-04T16:18:47;3.67;;;3.00;;
17414;SDS011;8825;48.086;16.426;2023-06-04T16:21:20;4.53;;;3.40;;
17414;SDS011;8825;48.086;16.426;2023-06-04T16:23:44;4.27;;;3.17;;
17414;SDS011;8825;48.086;16.426;2023-06-04T16:26:12;4.60;;;3.10;;
17414;SDS011;8825;48.086;16.426;2023-06-04T16:28:40;4.17;;;3.77;;
17414;SDS011;8825;48.086;16.426;2023-06-04T16:31:08;3.70;;;3.00;;
17414;SDS011;8825;48.086;16.426;2023-06-04T16:33:35;3.37;;;3.07;;
17414;SDS011;8825;48.086;16.426;2023-06-04T16:36:03;4.43;;;3.20;;
17414;SDS011;8825;48.086;16.426;2023-06-04T16:38:31;4.60;;;3.27;;
17414;SDS011;8825;48.086;16.426;2023-06-04T16:40:58;4.13;;;3.20;;
17414;SDS011;8825;48.086;16.426;2023-06-04T16:43:26;3.60;;;3.27;;
17414;SDS011;8825;48.086;16.426;2023-06-04T16:45:53;5.53;;;3.40;;
17414;SDS011;8825;48.086;16.426;2023-06-04T16:48:21;4.40;;;3.40;;
17414;SDS011;8825;48.086;16.426;2023-06-04T16:50:49;3.57;;;3.23;;
17414;SDS011;8825;48.086;16.426;2023-06-04T16:53:16;3.40;;;3.10;;
17414;SDS011;8825;48.086;16.426;2023-06-04T16:55:44;3.50;;;3.20;;
17414;SDS011;8825;48.086;16.426;2023-06-04T16:58:11;4.13;;;3.30;;
17414;SDS011;8825;48.086;16.426;2023-06-04T17:00:39;3.67;;;3.37;;
17414;SDS011;8825;48.086;16.426;2023-06-04T17:03:07;4.53;;;3.23;;
17414;SDS011;8825;48.086;16.426;2023-06-04T17:05:34;4.20;;;3.23;;
17414;SDS011;8825;48.086;16.426;2023-06-04T17:08:02;4.67;;;3.57;;
17414;SDS011;8825;48.086;16.426;2023-06-04T17:10:30;4.47;;;3.27;;
17414;SDS011;8825;48.086;16.426;2023-06-04T17:13:01;4.60;;;3.40;;
17414;SDS011;8825;48.086;16.426;2023-06-04T17:15:29;3.70;;;3.30;;
17414;SDS011;8825;48.086;16.426;2023-06-04T17:17:57;3.40;;;2.97;;
17414;SDS011;8825;48.086;16.426;2023-06-04T17:20:27;3.77;;;3.17;;
17414;SDS011;8825;48.086;16.426;2023-06-04T17:22:59;3.47;;;3.17;;
17414;SDS011;8825;48.086;16.426;2023-06-04T17:25:27;4.10;;;3.13;;
17414;SDS011;8825;48.086;16.426;2023-06-04T17:27:55;3.47;;;3.03;;
17414;SDS011;8825;48.086;16.426;2023-06-04T17:30:23;3.47;;;3.17;;
17414;SDS011;8825;48.086;16.426;2023-06-04T17:32:50;4.40;;;3.63;;
17414;SDS011;8825;48.086;16.426;2023-06-04T17:35:18;3.17;;;2.90;;
17414;SDS011;8825;48.086;16.426;2023-06-04T17:37:45;4.00;;;3.50;;
17414;SDS011;8825;48.086;16.426;2023-06-04T17:40:13;3.83;;;3.40;;
17414;SDS011;8825;48.086;16.426;2023-06-04T17:42:41;3.50;;;3.07;;
17414;SDS011;8825;48.086;16.426;2023-06-04T17:45:10;3.20;;;2.90;;
17414;SDS011;8825;48.086;16.426;2023-06-04T17:47:37;4.03;;;3.20;;
17414;SDS011;8825;48.086;16.426;2023-06-04T17:50:05;4.13;;;3.63;;
17414;SDS011;8825;48.086;16.426;2023-06-04T17:52:34;4.67;;;3.40;;
17414;SDS011;8825;48.086;16.426;2023-06-04T17:55:02;3.70;;;3.40;;
17414;SDS011;8825;48.086;16.426;2023-06-04T17:57:29;3.67;;;3.33;;
17414;SDS011;8825;48.086;16.426;2023-06-04T17:59:57;5.30;;;3.57;;
17414;SDS011;8825;48.086;16.426;2023-06-04T18:02:25;5.43;;;4.17;;
17414;SDS011;8825;48.086;16.426;2023-06-04T18:04:52;4.83;;;3.10;;
17414;SDS011;8825;48.086;16.426;2023-06-04T18:07:20;3.70;;;3.40;;
17414;SDS011;8825;48.086;16.426;2023-06-04T18:09:47;4.13;;;3.63;;
17414;SDS011;8825;48.086;16.426;2023-06-04T18:12:16;3.80;;;3.50;;
17414;SDS011;8825;48.086;16.426;2023-06-04T18:14:44;4.10;;;3.40;;
17414;SDS011;8825;48.086;16.426;2023-06-04T18:17:11;5.00;;;3.27;;
17414;SDS011;8825;48.086;16.426;2023-06-04T18:19:39;5.17;;;3.83;;
17414;SDS011;8825;48.086;16.426;2023-06-04T18:22:06;4.03;;;3.63;;
17414;SDS011;8825;48.086;16.426;2023-06-04T18:24:34;4.67;;;4.20;;
17414;SDS011;8825;48.086;16.426;2023-06-04T18:27:05;4.97;;;3.80;;
17414;SDS011;8825;48.086;16.426;2023-06-04T18:29:33;4.10;;;3.70;;
17414;SDS011;8825;48.086;16.426;2023-06-04T18:32:00;5.73;;;4.23;;
17414;SDS011;8825;48.086;16.426;2023-06-04T18:34:28;4.70;;;3.70;;
17414;SDS011;8825;48.086;16.426;2023-06-04T18:36:56;5.67;;;3.97;;
17414;SDS011;8825;48.086;16.426;2023-06-04T18:39:23;4.53;;;3.90;;
17414;SDS011;8825;48.086;16.426;2023-06-04T18:41:52;4.30;;;3.90;;
17414;SDS011;8825;48.086;16.426;2023-06-04T18:44:21;5.43;;;4.10;;
17414;SDS011;8825;48.086;16.426;2023-06-04T18:46:49;5.00;;;3.87;;
17414;SDS011;8825;48.086;16.426;2023-06-04T18:49:17;4.23;;;3.80;;
17414;SDS011;8825;48.086;16.426;2023-06-04T18:51:49;4.23;;;3.83;;
17414;SDS011;8825;48.086;16.426;2023-06-04T18:54:17;3.87;;;3.57;;
17414;SDS011;8825;48.086;16.426;2023-06-04T18:56:45;4.53;;;3.80;;
17414;SDS011;8825;48.086;16.426;2023-06-04T18:59:14;6.00;;;3.70;;
17414;SDS011;8825;48.086;16.426;2023-06-04T19:01:42;4.07;;;3.67;;
17414;SDS011;8825;48.086;16.426;2023-06-04T19:04:10;6.37;;;3.90;;
17414;SDS011;8825;48.086;16.426;2023-06-04T19:06:38;3.50;;;3.20;;
17414;SDS011;8825;48.086;16.426;2023-06-04T19:09:06;3.90;;;3.33;;
17414;SDS011;8825;48.086;16.426;2023-06-04T19:11:34;4.30;;;3.20;;
17414;SDS011;8825;48.086;16.426;2023-06-04T19:14:02;3.70;;;3.40;;
17414;SDS011;8825;48.086;16.426;2023-06-04T19:16:30;3.87;;;3.47;;
17414;SDS011;8825;48.086;16.426;2023-06-04T19:18:57;3.70;;;3.37;;
17414;SDS011;8825;48.086;16.426;2023-06-04T19:21:25;3.93;;;3.40;;
17414;SDS011;8825;48.086;16.426;2023-06-04T19:23:52;4.03;;;3.70;;
17414;SDS011;8825;48.086;16.426;2023-06-04T19:26:20;3.97;;;3.50;;
17414;SDS011;8825;48.086;16.426;2023-06-04T19:28:47;4.23;;;3.83;;
17414;SDS011;8825;48.086;16.426;2023-06-04T19:31:15;4.90;;;3.83;;
17414;SDS011;8825;48.086;16.426;2023-06-04T19:33:42;4.00;;;3.70;;
17414;SDS011;8825;48.086;16.426;2023-06-04T19:36:11;4.20;;;3.70;;
17414;SDS011;8825;48.086;16.426;2023-06-04T19:38:39;3.77;;;3.43;;
17414;SDS011;8825;48.086;16.426;2023-06-04T19:41:08;3.90;;;3.60;;
17414;SDS011;8825;48.086;16.426;2023-06-04T19:43:35;3.57;;;3.27;;
17414;SDS011;8825;48.086;16.426;2023-06-04T19:46:03;3.30;;;3.00;;
17414;SDS011;8825;48.086;16.426;2023-06-04T19:48:30;4.03;;;3.70;;
17414;SDS011;8825;48.086;16.426;2023-06-04T19:50:58;3.53;;;3.23;;
17414;SDS011;8825;48.086;16.426;2023-06-04T19:53:25;3.70;;;3.37;;
17414;SDS011;8825;48.086;16.426;2023-06-04T19:55:53;3.87;;;3.40;;
17414;SDS011;8825;48.086;16.426;2023-06-04T19:58:20;3.30;;;3.00;;
17414;SDS011;8825;48.086;16.426;2023-06-04T20:00:48;3.67;;;3.33;;
17414;SDS011;8825;48.086;16.426;2023-06-04T20:03:15;3.57;;;3.27;;